Time;durP1;ratioP1;P1;durP2;ratioP2;P2;SDS_P1;SDS_P2;PMS_P1;PMS_P2;Temp;Humidity;BMP_temperature;BMP_pressure;BME280_temperature;BME280_humidity;BME280_pressure;Samples;Min_cycle;Max_cycle;Signal;HPM_P1;HPM_P2
2021/06/18 00:01:46;;;;;;;67.70;48.40;;;21.00;99.90;;;;;;5071059;28;20385;-77
2021/06/18 00:04:12;;;;;;;67.18;45.55;;;21.00;99.90;;;;;;5071403;28;20091;-76
2021/06/18 00:06:37;;;;;;;62.80;46.00;;;21.00;99.90;;;;;;5070425;28;20119;-76
2021/06/18 00:09:03;;;;;;;65.57;45.33;;;21.00;99.90;;;;;;5068867;28;20036;-76
2021/06/18 00:11:29;;;;;;;54.75;43.00;;;21.00;99.90;;;;;;5061694;28;20112;-77
2021/06/18 00:13:55;;;;;;;57.10;41.58;;;21.10;99.90;;;;;;5070652;28;20108;-78
2021/06/18 00:16:22;;;;;;;54.45;42.88;;;21.10;99.90;;;;;;5054862;28;20025;-77
2021/06/18 00:18:47;;;;;;;51.58;41.47;;;21.10;99.90;;;;;;5061099;28;20044;-77
2021/06/18 00:21:13;;;;;;;56.33;41.20;;;21.10;99.90;;;;;;5067154;28;20204;-76
2021/06/18 00:23:39;;;;;;;56.33;42.35;;;21.20;99.90;;;;;;5067956;28;20114;-77
2021/06/18 00:26:04;;;;;;;49.38;39.28;;;21.20;99.90;;;;;;5070578;28;20107;-77
2021/06/18 00:28:30;;;;;;;51.78;40.30;;;21.20;99.90;;;;;;5068558;28;20031;-76
2021/06/18 00:30:56;;;;;;;48.42;38.55;;;21.20;99.90;;;;;;5070037;28;20017;-77
2021/06/18 00:33:22;;;;;;;55.25;40.10;;;21.10;99.90;;;;;;5071870;28;20024;-77
2021/06/18 00:35:48;;;;;;;50.45;37.35;;;21.00;99.90;;;;;;5062600;28;20032;-76
2021/06/18 00:38:14;;;;;;;52.53;38.33;;;21.10;99.90;;;;;;5065670;28;20024;-75
2021/06/18 00:40:40;;;;;;;44.63;35.25;;;21.20;99.90;;;;;;5064365;28;20441;-76
2021/06/18 00:43:05;;;;;;;47.88;37.42;;;21.30;99.90;;;;;;5069472;28;20021;-77
2021/06/18 00:45:31;;;;;;;46.63;33.33;;;21.20;99.90;;;;;;5065977;28;20032;-77
2021/06/18 00:48:00;;;;;;;47.40;35.50;;;21.30;99.90;;;;;;5070130;28;20108;-77
2021/06/18 00:50:27;;;;;;;47.20;35.97;;;21.40;99.90;;;;;;5055268;28;20052;-78
2021/06/18 00:52:53;;;;;;;45.00;35.53;;;21.30;99.90;;;;;;5044718;28;20166;-77
2021/06/18 00:55:18;;;;;;;48.30;37.47;;;21.10;99.90;;;;;;5058125;28;20086;-77
2021/06/18 00:57:45;;;;;;;48.28;36.50;;;21.00;99.90;;;;;;5056415;28;20172;-75
2021/06/18 01:00:12;;;;;;;52.28;36.20;;;21.00;99.90;;;;;;5070112;28;20218;-77
2021/06/18 01:02:39;;;;;;;47.83;37.15;;;20.90;99.90;;;;;;5062222;28;20040;-75
2021/06/18 01:05:07;;;;;;;48.83;38.20;;;20.90;99.90;;;;;;5067229;28;20009;-76
2021/06/18 01:07:42;;;;;;;55.17;37.97;;;20.80;99.90;;;;;;5058037;28;20380;-76
2021/06/18 01:10:39;;;;;;;49.72;37.75;;;20.80;99.90;;;;;;5066035;28;20504;-77
2021/06/18 01:13:27;;;;;;;54.22;39.15;;;20.80;99.90;;;;;;5063357;28;20028;-76
2021/06/18 01:16:14;;;;;;;50.42;37.03;;;20.90;99.90;;;;;;5069886;28;20116;-75
2021/06/18 01:18:56;;;;;;;49.53;36.92;;;21.00;99.90;;;;;;5062074;28;20115;-77
2021/06/18 01:21:43;;;;;;;48.30;36.15;;;21.00;99.90;;;;;;5062988;28;20028;-77
2021/06/18 01:24:15;;;;;;;54.30;40.65;;;20.90;99.90;;;;;;5069624;28;20032;-76
2021/06/18 01:26:54;;;;;;;52.67;40.38;;;20.70;99.90;;;;;;5070173;28;20029;-76
2021/06/18 01:29:22;;;;;;;55.38;37.75;;;20.60;99.90;;;;;;5062489;28;20036;-76
2021/06/18 01:31:50;;;;;;;54.42;37.17;;;20.60;99.90;;;;;;5061940;28;20169;-77
2021/06/18 01:34:28;;;;;;;54.50;38.83;;;20.70;99.90;;;;;;5079290;28;20051;-77
2021/06/18 01:37:02;;;;;;;55.72;37.78;;;20.80;99.90;;;;;;5071346;28;20086;-76
2021/06/18 01:39:29;;;;;;;48.20;36.00;;;20.60;99.90;;;;;;5063035;28;20406;-77
2021/06/18 01:41:57;;;;;;;53.28;37.63;;;20.70;99.90;;;;;;5065473;28;20056;-77
2021/06/18 01:44:23;;;;;;;46.53;35.72;;;20.70;99.90;;;;;;5060329;28;20032;-77
2021/06/18 01:46:51;;;;;;;47.08;36.75;;;20.60;99.90;;;;;;5062464;28;20094;-77
2021/06/18 01:49:19;;;;;;;42.97;34.58;;;20.60;99.90;;;;;;5068220;28;20066;-76
2021/06/18 01:51:48;;;;;;;44.05;32.08;;;20.60;99.90;;;;;;5067824;28;20024;-77
2021/06/18 01:54:15;;;;;;;48.65;34.90;;;20.80;99.90;;;;;;5065776;28;20600;-77
2021/06/18 01:56:41;;;;;;;50.72;35.63;;;20.60;99.90;;;;;;5066448;28;20060;-77
2021/06/18 01:59:07;;;;;;;46.85;35.10;;;20.60;99.90;;;;;;5056651;28;20081;-77
2021/06/18 02:01:41;;;;;;;49.95;33.83;;;20.50;99.90;;;;;;5063442;28;20055;-77
2021/06/18 02:04:08;;;;;;;50.88;34.83;;;20.60;99.90;;;;;;5072843;28;20024;-76
2021/06/18 02:06:36;;;;;;;52.38;35.42;;;20.60;99.90;;;;;;5084437;28;20020;-77
2021/06/18 02:09:05;;;;;;;45.63;35.78;;;20.50;99.90;;;;;;5074141;28;20037;-77
2021/06/18 02:11:33;;;;;;;50.25;37.03;;;20.40;99.90;;;;;;5062834;28;20025;-78
2021/06/18 02:14:01;;;;;;;49.60;34.50;;;20.30;99.90;;;;;;5066088;28;20092;-76
2021/06/18 02:16:29;;;;;;;51.08;36.70;;;20.40;99.90;;;;;;5075649;28;20268;-76
2021/06/18 02:18:56;;;;;;;60.22;38.75;;;20.40;99.90;;;;;;5074210;28;20016;-75
2021/06/18 02:21:24;;;;;;;54.78;39.17;;;20.30;99.90;;;;;;5074351;28;20626;-76
2021/06/18 02:23:51;;;;;;;57.40;38.53;;;20.20;99.90;;;;;;5070054;28;20031;-76
2021/06/18 02:26:17;;;;;;;60.35;42.50;;;20.10;99.90;;;;;;5063682;28;20116;-76
2021/06/18 02:28:43;;;;;;;60.63;41.97;;;20.00;99.90;;;;;;5055606;28;20084;-77
2021/06/18 02:31:13;;;;;;;65.82;44.20;;;20.10;99.90;;;;;;5063727;28;20065;-77
2021/06/18 02:33:39;;;;;;;55.92;43.58;;;20.20;99.90;;;;;;5066412;28;20048;-76
2021/06/18 02:36:05;;;;;;;65.90;46.95;;;20.20;99.90;;;;;;5057977;28;20162;-76
2021/06/18 02:38:32;;;;;;;78.40;47.40;;;20.00;99.90;;;;;;5064525;28;20093;-77
2021/06/18 02:40:58;;;;;;;72.05;46.60;;;20.00;99.90;;;;;;5070373;28;20036;-76
2021/06/18 02:43:23;;;;;;;76.43;49.90;;;20.00;99.90;;;;;;5052219;28;20512;-76
2021/06/18 02:45:49;;;;;;;73.75;47.28;;;20.00;99.90;;;;;;5066786;28;20097;-76
2021/06/18 02:48:25;;;;;;;72.13;48.78;;;19.90;99.90;;;;;;5069726;28;20032;-77
2021/06/18 02:51:15;;;;;;;73.80;50.72;;;20.00;99.90;;;;;;5068026;28;20426;-76
2021/06/18 02:53:55;;;;;;;77.63;51.13;;;20.00;99.90;;;;;;5068940;28;20027;-77
2021/06/18 02:56:27;;;;;;;73.90;50.60;;;20.00;99.90;;;;;;5067458;28;20104;-77
2021/06/18 02:59:10;;;;;;;75.93;49.95;;;19.90;99.90;;;;;;5058871;28;20032;-76
2021/06/18 03:01:38;;;;;;;87.63;53.47;;;19.90;99.90;;;;;;5057613;28;20112;-78
2021/06/18 03:04:05;;;;;;;83.45;52.33;;;20.00;99.90;;;;;;5060581;28;20024;-75
2021/06/18 03:06:34;;;;;;;90.80;53.70;;;20.00;99.90;;;;;;5063478;28;20017;-77
2021/06/18 03:09:03;;;;;;;87.07;53.90;;;19.90;99.90;;;;;;5064705;28;20048;-75
2021/06/18 03:11:35;;;;;;;78.00;51.38;;;19.90;99.90;;;;;;5061446;28;20546;-76
2021/06/18 03:14:05;;;;;;;79.30;49.85;;;20.00;99.90;;;;;;5062785;28;20033;-75
2021/06/18 03:16:33;;;;;;;71.40;49.05;;;20.10;99.90;;;;;;5055240;28;20099;-75
2021/06/18 03:19:02;;;;;;;76.80;50.85;;;20.10;99.90;;;;;;5058395;28;20032;-76
2021/06/18 03:21:32;;;;;;;82.38;52.70;;;20.30;99.90;;;;;;5061369;28;20033;-76
2021/06/18 03:24:00;;;;;;;69.63;48.95;;;20.30;99.90;;;;;;5061393;28;20097;-75
2021/06/18 03:26:26;;;;;;;89.57;58.25;;;20.40;99.90;;;;;;5062999;28;20471;-76
2021/06/18 03:28:54;;;;;;;81.63;58.40;;;20.40;99.90;;;;;;5063563;28;20420;-76
2021/06/18 03:31:26;;;;;;;80.45;58.60;;;20.50;99.90;;;;;;5064260;28;20021;-75
2021/06/18 03:33:52;;;;;;;88.97;63.53;;;20.40;99.90;;;;;;5060941;28;20144;-77
2021/06/18 03:36:24;;;;;;;104.82;65.05;;;20.40;99.90;;;;;;5059047;28;20380;-77
2021/06/18 03:38:51;;;;;;;97.13;62.40;;;20.20;99.90;;;;;;5061458;28;20040;-76
2021/06/18 03:41:19;;;;;;;104.57;66.05;;;19.90;99.90;;;;;;5053129;28;20082;-75
2021/06/18 03:43:45;;;;;;;125.65;66.03;;;19.80;99.90;;;;;;5052027;28;20025;-74
2021/06/18 03:46:13;;;;;;;125.72;66.85;;;19.70;99.90;;;;;;5058343;28;20055;-76
2021/06/18 03:48:41;;;;;;;126.22;69.43;;;19.90;99.90;;;;;;5052151;28;20021;-76
2021/06/18 03:51:07;;;;;;;151.73;75.85;;;20.10;99.90;;;;;;5058812;28;20047;-75
2021/06/18 03:53:37;;;;;;;163.18;78.03;;;20.10;99.90;;;;;;5060241;28;20035;-74
2021/06/18 03:56:04;;;;;;;151.48;79.40;;;20.00;99.90;;;;;;5064072;28;20166;-73
2021/06/18 03:58:32;;;;;;;159.98;81.10;;;19.80;99.90;;;;;;5062569;28;20044;-74
2021/06/18 04:00:59;;;;;;;173.40;80.90;;;19.70;99.90;;;;;;5063119;28;20097;-73
2021/06/18 04:03:26;;;;;;;194.73;86.60;;;19.70;99.90;;;;;;5056732;28;20105;-74
2021/06/18 04:05:59;;;;;;;196.50;87.43;;;19.70;99.90;;;;;;5053396;28;20033;-75
2021/06/18 04:08:25;;;;;;;174.45;81.47;;;19.70;99.90;;;;;;5052878;28;20115;-71
2021/06/18 04:10:52;;;;;;;200.45;83.50;;;19.70;99.90;;;;;;5052796;28;20104;-69
2021/06/18 04:13:18;;;;;;;144.35;74.13;;;19.80;99.90;;;;;;5047065;28;20024;-73
2021/06/18 04:15:45;;;;;;;168.52;78.78;;;19.80;99.90;;;;;;5049767;28;20032;-71
2021/06/18 04:18:12;;;;;;;139.05;70.68;;;19.70;99.90;;;;;;5051191;28;20063;-73
2021/06/18 04:20:38;;;;;;;170.30;77.57;;;19.70;99.90;;;;;;5056370;28;20082;-72
2021/06/18 04:23:04;;;;;;;137.27;71.15;;;19.60;99.90;;;;;;5059487;28;20040;-72
2021/06/18 04:25:30;;;;;;;138.10;70.50;;;19.50;99.90;;;;;;5055922;28;20095;-73
2021/06/18 04:27:58;;;;;;;124.70;68.63;;;19.50;99.90;;;;;;5060161;28;20119;-71
2021/06/18 04:30:24;;;;;;;134.43;67.75;;;19.60;99.90;;;;;;5064497;28;20073;-71
2021/06/18 04:32:50;;;;;;;137.15;69.95;;;19.40;99.90;;;;;;5058322;28;20056;-75
2021/06/18 04:35:16;;;;;;;119.45;62.97;;;19.50;99.90;;;;;;5060987;28;20071;-74
2021/06/18 04:37:42;;;;;;;135.07;67.53;;;19.50;99.90;;;;;;5064234;28;20028;-72
2021/06/18 04:40:09;;;;;;;115.72;60.10;;;19.50;99.90;;;;;;5064507;28;20032;-75
2021/06/18 04:42:35;;;;;;;97.13;55.50;;;19.40;99.90;;;;;;5063235;28;20052;-71
2021/06/18 04:45:01;;;;;;;100.50;56.92;;;19.40;99.90;;;;;;5063831;28;20060;-75
2021/06/18 04:47:27;;;;;;;98.45;56.53;;;19.30;99.90;;;;;;5053423;28;20044;-73
2021/06/18 04:49:53;;;;;;;108.13;59.58;;;19.40;99.90;;;;;;5063451;28;20765;-72
2021/06/18 04:52:18;;;;;;;100.63;57.90;;;19.30;99.90;;;;;;5064349;28;20023;-71
2021/06/18 04:54:45;;;;;;;92.57;54.83;;;19.30;99.90;;;;;;5061013;28;20162;-69
2021/06/18 04:57:13;;;;;;;86.82;53.90;;;19.30;99.90;;;;;;5064203;28;20072;-73
2021/06/18 04:59:38;;;;;;;86.85;54.50;;;19.30;99.90;;;;;;5066252;28;20051;-73
2021/06/18 05:02:05;;;;;;;87.63;52.80;;;19.30;99.90;;;;;;5063560;28;20024;-74
2021/06/18 05:04:31;;;;;;;75.10;49.72;;;19.30;99.90;;;;;;5057030;28;20029;-74
2021/06/18 05:06:57;;;;;;;82.88;51.90;;;19.30;99.90;;;;;;5049450;28;20409;-77
2021/06/18 05:09:23;;;;;;;87.15;55.63;;;19.40;99.90;;;;;;5051781;28;20028;-75
2021/06/18 05:11:49;;;;;;;87.40;56.17;;;19.30;99.90;;;;;;5055248;28;20111;-74
2021/06/18 05:14:14;;;;;;;97.78;59.42;;;19.40;99.90;;;;;;5068518;28;20067;-72
2021/06/18 05:16:40;;;;;;;94.93;57.75;;;19.40;99.90;;;;;;5062694;28;20021;-72
2021/06/18 05:19:06;;;;;;;91.25;57.85;;;19.40;99.90;;;;;;5058684;28;20036;-77
2021/06/18 05:21:32;;;;;;;91.93;56.97;;;19.40;99.90;;;;;;5058737;28;20025;-73
2021/06/18 05:23:58;;;;;;;95.05;58.92;;;19.50;99.90;;;;;;5057786;28;20472;-74
2021/06/18 05:26:24;;;;;;;84.45;56.33;;;19.50;99.90;;;;;;5057022;28;20076;-74
2021/06/18 05:28:50;;;;;;;102.30;58.28;;;19.50;99.90;;;;;;5061085;28;20029;-73
2021/06/18 05:31:15;;;;;;;89.43;54.90;;;19.60;99.90;;;;;;5065548;28;20055;-74
2021/06/18 05:33:41;;;;;;;67.50;47.53;;;19.60;99.90;;;;;;5063564;28;20076;-75
2021/06/18 05:36:07;;;;;;;79.78;47.78;;;19.60;99.90;;;;;;5068126;28;20187;-73
2021/06/18 05:38:33;;;;;;;65.57;42.97;;;19.60;99.90;;;;;;5069774;28;20530;-72
2021/06/18 05:40:59;;;;;;;64.32;41.70;;;19.50;99.90;;;;;;5063978;28;20089;-74
2021/06/18 05:43:25;;;;;;;45.20;33.83;;;19.50;99.90;;;;;;5067341;28;20036;-73
2021/06/18 05:45:51;;;;;;;42.78;32.85;;;19.50;99.90;;;;;;5055517;28;20052;-75
2021/06/18 05:48:17;;;;;;;42.67;29.15;;;19.60;99.90;;;;;;5055516;28;20032;-75
2021/06/18 05:50:44;;;;;;;49.50;30.60;;;19.70;99.90;;;;;;5060865;28;20031;-77
2021/06/18 05:53:10;;;;;;;47.20;33.60;;;19.70;99.90;;;;;;5060333;28;20679;-73
2021/06/18 05:55:36;;;;;;;51.65;37.53;;;19.80;99.90;;;;;;5067675;28;20033;-75
2021/06/18 05:58:02;;;;;;;61.15;43.92;;;19.90;99.90;;;;;;5067355;28;20021;-75
2021/06/18 06:00:27;;;;;;;62.00;44.35;;;19.80;99.90;;;;;;5072442;28;20048;-75
2021/06/18 06:03:00;;;;;;;63.63;43.85;;;19.80;99.90;;;;;;5076665;28;20137;-74
2021/06/18 06:05:27;;;;;;;62.55;43.85;;;19.70;99.90;;;;;;5088612;28;20084;-74
2021/06/18 06:07:56;;;;;;;62.30;44.70;;;19.70;99.90;;;;;;5085278;28;20032;-73
2021/06/18 06:10:21;;;;;;;67.05;46.45;;;19.80;99.90;;;;;;5083817;28;20020;-75
2021/06/18 06:12:47;;;;;;;57.08;43.30;;;19.80;99.90;;;;;;5081109;28;20036;-75
2021/06/18 06:15:14;;;;;;;65.78;45.38;;;19.90;99.90;;;;;;5075191;28;20017;-76
2021/06/18 06:17:40;;;;;;;64.60;44.55;;;19.90;99.90;;;;;;5067647;28;20061;-76
2021/06/18 06:20:07;;;;;;;69.82;48.22;;;19.90;99.90;;;;;;5067045;28;20031;-74
2021/06/18 06:22:33;;;;;;;71.78;48.05;;;19.90;99.90;;;;;;5067097;28;20021;-74
2021/06/18 06:25:00;;;;;;;65.13;46.40;;;19.90;99.90;;;;;;5066243;28;20070;-75
2021/06/18 06:27:26;;;;;;;64.90;47.80;;;20.00;99.90;;;;;;5074886;28;20019;-75
2021/06/18 06:29:53;;;;;;;68.85;47.42;;;20.10;99.90;;;;;;5070012;28;20097;-74
2021/06/18 06:32:19;;;;;;;75.10;49.42;;;20.10;99.90;;;;;;5064417;28;20031;-76
2021/06/18 06:34:45;;;;;;;60.75;45.20;;;20.20;99.90;;;;;;5066882;28;20076;-72
2021/06/18 06:37:11;;;;;;;69.20;47.40;;;20.30;99.90;;;;;;5066607;28;20048;-76
2021/06/18 06:39:37;;;;;;;62.10;46.45;;;20.30;99.90;;;;;;5068160;28;20094;-74
2021/06/18 06:42:04;;;;;;;65.25;47.72;;;20.30;99.90;;;;;;5056579;28;20150;-73
2021/06/18 06:44:30;;;;;;;66.38;46.78;;;20.30;99.90;;;;;;5057527;28;20489;-75
2021/06/18 06:46:56;;;;;;;61.47;45.92;;;20.20;99.90;;;;;;5054916;28;20126;-74
2021/06/18 06:49:21;;;;;;;62.53;45.85;;;20.20;99.90;;;;;;5068284;28;20119;-74
2021/06/18 06:51:52;;;;;;;63.13;46.10;;;20.20;99.90;;;;;;5065582;28;20024;-73
2021/06/18 06:54:18;;;;;;;59.50;45.15;;;20.30;99.90;;;;;;5059442;28;20024;-75
2021/06/18 06:56:43;;;;;;;62.33;44.28;;;20.40;99.90;;;;;;5060549;28;20016;-76
2021/06/18 06:59:09;;;;;;;60.92;42.05;;;20.40;99.90;;;;;;5067744;28;20638;-76
2021/06/18 07:01:35;;;;;;;57.45;40.97;;;20.30;99.90;;;;;;5068331;28;20096;-74
2021/06/18 07:04:01;;;;;;;59.17;43.97;;;20.40;99.90;;;;;;5064074;28;20082;-74
2021/06/18 07:06:29;;;;;;;60.38;44.28;;;20.40;99.90;;;;;;5052629;28;20033;-75
2021/06/18 07:08:55;;;;;;;58.63;42.85;;;20.30;99.90;;;;;;5064474;28;20032;-73
2021/06/18 07:11:21;;;;;;;62.60;46.28;;;20.30;99.90;;;;;;5063818;28;20115;-75
2021/06/18 07:13:46;;;;;;;62.55;44.38;;;20.30;99.90;;;;;;5052674;28;20021;-73
2021/06/18 07:16:13;;;;;;;54.90;40.80;;;20.40;99.90;;;;;;5062708;28;20020;-74
2021/06/18 07:18:38;;;;;;;55.25;41.60;;;20.40;99.90;;;;;;5048076;28;20028;-75
2021/06/18 07:21:04;;;;;;;52.35;40.83;;;20.40;99.90;;;;;;5055151;28;20028;-75
2021/06/18 07:23:30;;;;;;;51.25;37.15;;;20.40;99.90;;;;;;5063302;28;20441;-74
2021/06/18 07:25:56;;;;;;;50.83;36.25;;;20.40;99.90;;;;;;5056978;28;20036;-74
2021/06/18 07:28:21;;;;;;;43.75;35.78;;;20.40;99.90;;;;;;5058875;28;20020;-73
2021/06/18 07:30:47;;;;;;;45.78;33.08;;;20.40;99.90;;;;;;5063457;28;20016;-74
2021/06/18 07:33:12;;;;;;;38.05;30.25;;;20.40;99.90;;;;;;5064164;28;20463;-75
2021/06/18 07:35:38;;;;;;;38.00;29.88;;;20.50;99.90;;;;;;5064222;28;20024;-76
2021/06/18 07:38:04;;;;;;;32.22;26.98;;;20.60;99.90;;;;;;5064799;28;20076;-74
2021/06/18 07:40:31;;;;;;;33.40;26.85;;;20.60;99.90;;;;;;5054606;28;20523;-72
2021/06/18 07:42:56;;;;;;;30.98;25.90;;;20.50;99.90;;;;;;5060617;28;20491;-75
2021/06/18 07:45:22;;;;;;;35.38;28.05;;;20.50;99.90;;;;;;5069445;28;20036;-75
2021/06/18 07:47:48;;;;;;;36.08;27.33;;;20.50;99.90;;;;;;5078345;28;20198;-75
2021/06/18 07:50:16;;;;;;;36.75;27.55;;;20.60;99.90;;;;;;5060001;28;20024;-75
2021/06/18 07:52:42;;;;;;;32.75;26.80;;;20.60;99.90;;;;;;5068075;28;20108;-74
2021/06/18 07:55:11;;;;;;;31.83;26.50;;;20.70;99.90;;;;;;5064361;28;20036;-76
2021/06/18 07:57:37;;;;;;;39.00;29.58;;;20.80;99.90;;;;;;5069118;28;20030;-72
2021/06/18 08:00:08;;;;;;;38.33;28.95;;;20.90;99.90;;;;;;5068277;28;20048;-73
2021/06/18 08:02:34;;;;;;;36.67;27.03;;;20.90;99.90;;;;;;5085286;28;20028;-75
2021/06/18 08:04:59;;;;;;;32.90;27.25;;;20.90;99.90;;;;;;5049906;28;20602;-75
2021/06/18 08:07:25;;;;;;;34.03;27.38;;;21.10;99.90;;;;;;5059472;28;20584;-76
2021/06/18 08:09:51;;;;;;;35.42;26.52;;;21.30;99.90;;;;;;5066369;28;20048;-76
2021/06/18 08:12:20;;;;;;;27.90;23.17;;;21.30;99.90;;;;;;5056668;28;20218;-76
2021/06/18 08:14:46;;;;;;;31.67;23.15;;;21.30;99.90;;;;;;5067831;28;20455;-75
2021/06/18 08:17:11;;;;;;;24.35;21.20;;;21.30;99.90;;;;;;5049139;28;20035;-76
2021/06/18 08:19:38;;;;;;;28.42;19.15;;;21.40;99.90;;;;;;5061541;28;20107;-76
2021/06/18 08:22:07;;;;;;;31.30;20.50;;;21.50;99.90;;;;;;5067114;28;20056;-75
2021/06/18 08:24:33;;;;;;;23.38;19.30;;;21.80;99.90;;;;;;5066160;28;20032;-76
2021/06/18 08:26:59;;;;;;;22.50;16.88;;;21.90;99.90;;;;;;5068539;28;20017;-75
2021/06/18 08:29:25;;;;;;;23.95;16.35;;;22.00;99.90;;;;;;5067641;28;20479;-74
2021/06/18 08:31:50;;;;;;;18.52;15.77;;;22.20;99.90;;;;;;5067196;28;20104;-72
2021/06/18 08:34:16;;;;;;;17.92;13.95;;;22.40;99.90;;;;;;5064242;28;20120;-77
2021/06/18 08:36:43;;;;;;;18.30;13.02;;;22.40;99.90;;;;;;5062773;28;20154;-75
2021/06/18 08:39:09;;;;;;;18.33;13.18;;;22.30;99.90;;;;;;5063768;28;20041;-74
2021/06/18 08:41:35;;;;;;;15.95;11.88;;;22.40;99.90;;;;;;5057211;28;20361;-76
2021/06/18 08:44:00;;;;;;;17.35;13.43;;;22.60;99.90;;;;;;5057994;28;20094;-75
2021/06/18 08:46:26;;;;;;;13.32;11.95;;;22.70;99.90;;;;;;5065307;28;20025;-75
2021/06/18 08:48:52;;;;;;;15.90;12.02;;;22.60;99.90;;;;;;5065239;28;20751;-75
2021/06/18 08:51:19;;;;;;;16.88;12.18;;;22.60;99.90;;;;;;5055795;28;20084;-74
2021/06/18 08:53:45;;;;;;;17.75;11.20;;;22.70;99.90;;;;;;5057463;28;20681;-75
2021/06/18 08:56:10;;;;;;;16.67;11.13;;;22.80;99.90;;;;;;5053647;28;20071;-75
2021/06/18 08:58:37;;;;;;;15.98;11.63;;;22.80;99.90;;;;;;5059006;28;20021;-77
2021/06/18 09:01:05;;;;;;;13.27;11.82;;;22.80;99.90;;;;;;5070240;28;20025;-75
2021/06/18 09:03:42;;;;;;;20.00;12.50;;;23.00;99.90;;;;;;5052962;28;20048;-74
2021/06/18 09:06:27;;;;;;;17.90;12.65;;;23.10;99.90;;;;;;5067487;28;20711;-75
2021/06/18 09:09:15;;;;;;;16.17;11.88;;;23.10;99.90;;;;;;5068982;28;20040;-75
2021/06/18 09:11:50;;;;;;;15.35;13.35;;;23.10;99.90;;;;;;5065872;28;20009;-75
2021/06/18 09:14:38;;;;;;;18.58;13.73;;;23.30;99.90;;;;;;5058051;28;20066;-74
2021/06/18 09:17:22;;;;;;;14.68;13.15;;;23.30;99.90;;;;;;5068816;28;20041;-75
2021/06/18 09:19:51;;;;;;;17.63;14.43;;;23.40;99.90;;;;;;5057718;28;20092;-75
2021/06/18 09:22:23;;;;;;;18.63;14.25;;;23.50;99.90;;;;;;5053697;28;20048;-75
2021/06/18 09:25:00;;;;;;;16.77;14.43;;;23.60;99.90;;;;;;5064101;28;20119;-75
2021/06/18 09:27:36;;;;;;;17.92;14.55;;;23.70;99.90;;;;;;5065157;28;20060;-74
2021/06/18 09:30:30;;;;;;;17.67;14.18;;;23.90;99.90;;;;;;5064041;28;20184;-77
2021/06/18 09:33:24;;;;;;;18.48;16.08;;;24.00;99.90;;;;;;5071661;28;20064;-76
2021/06/18 09:36:07;;;;;;;18.08;15.13;;;24.00;99.90;;;;;;5063961;28;20080;-77
2021/06/18 09:38:56;;;;;;;22.90;16.67;;;24.10;99.90;;;;;;5070878;28;20024;-76
2021/06/18 09:41:40;;;;;;;20.50;16.88;;;24.20;99.90;;;;;;5069819;28;20377;-77
2021/06/18 09:44:10;;;;;;;19.38;17.30;;;24.30;99.90;;;;;;5058703;28;20092;-76
2021/06/18 09:46:43;;;;;;;20.40;16.67;;;24.50;99.90;;;;;;5068113;28;20055;-76
2021/06/18 09:49:36;;;;;;;16.85;15.05;;;24.50;99.90;;;;;;5061502;28;20017;-76
2021/06/18 09:52:21;;;;;;;24.35;17.35;;;24.70;99.90;;;;;;5061737;28;20068;-79
2021/06/18 09:54:50;;;;;;;23.85;16.55;;;24.70;99.90;;;;;;5071320;28;20025;-76
2021/06/18 09:57:20;;;;;;;19.42;16.58;;;24.70;99.90;;;;;;5067661;28;20489;-75
2021/06/18 09:59:46;;;;;;;21.67;17.23;;;24.90;99.90;;;;;;5073044;28;20032;-76
2021/06/18 10:02:12;;;;;;;19.98;16.48;;;25.00;99.90;;;;;;5073549;28;20048;-77
2021/06/18 10:04:38;;;;;;;21.60;19.15;;;25.20;99.90;;;;;;5073503;28;20074;-76
2021/06/18 10:07:05;;;;;;;19.60;17.50;;;25.30;99.90;;;;;;5074685;28;20025;-75
2021/06/18 10:09:31;;;;;;;24.15;19.30;;;25.40;99.90;;;;;;5072303;28;20036;-77
2021/06/18 10:11:56;;;;;;;24.55;21.00;;;25.40;99.90;;;;;;5072495;28;20029;-77
2021/06/18 10:14:22;;;;;;;26.23;20.95;;;25.20;99.90;;;;;;5072936;28;20032;-77
2021/06/18 10:16:49;;;;;;;27.52;21.42;;;25.20;99.90;;;;;;5058584;28;20024;-77
2021/06/18 10:19:17;;;;;;;28.83;21.05;;;25.20;99.90;;;;;;5073185;28;20031;-76
2021/06/18 10:21:56;;;;;;;24.77;22.02;;;25.40;99.90;;;;;;5070902;28;20096;-78
2021/06/18 10:24:45;;;;;;;27.95;22.00;;;25.50;99.90;;;;;;5074233;28;20116;-77
2021/06/18 10:27:16;;;;;;;25.27;22.55;;;25.60;99.90;;;;;;5058022;28;20025;-78
2021/06/18 10:29:42;;;;;;;28.80;25.33;;;25.70;99.90;;;;;;5067244;28;20344;-80
2021/06/18 10:32:31;;;;;;;31.38;23.45;;;25.70;99.90;;;;;;5065804;28;20079;-75
2021/06/18 10:34:58;;;;;;;29.77;25.67;;;25.90;99.90;;;;;;5056941;28;20021;-76
2021/06/18 10:37:28;;;;;;;26.77;23.67;;;26.10;99.90;;;;;;5063363;28;20021;-77
2021/06/18 10:40:04;;;;;;;26.75;23.75;;;26.10;99.90;;;;;;5070960;28;20099;-77
2021/06/18 10:42:32;;;;;;;27.08;23.50;;;26.30;99.90;;;;;;5071791;28;20472;-76
2021/06/18 10:44:57;;;;;;;36.22;25.45;;;26.60;99.90;;;;;;5073734;28;20028;-77
2021/06/18 10:47:25;;;;;;;31.02;25.55;;;26.60;99.90;;;;;;5067056;28;20029;-76
2021/06/18 10:49:52;;;;;;;27.00;23.95;;;26.60;99.90;;;;;;5069002;28;20032;-74
2021/06/18 10:52:20;;;;;;;30.15;24.98;;;26.50;99.90;;;;;;5068401;28;20021;-78
2021/06/18 10:54:54;;;;;;;25.85;20.88;;;26.60;99.90;;;;;;5063811;28;20031;-77
2021/06/18 10:57:23;;;;;;;22.58;18.52;;;26.60;99.90;;;;;;5063882;28;20073;-75
2021/06/18 10:59:50;;;;;;;22.35;18.23;;;26.70;99.90;;;;;;5053527;28;20048;-78
2021/06/18 11:02:22;;;;;;;21.98;17.73;;;26.80;99.90;;;;;;5077766;28;20056;-76
2021/06/18 11:04:57;;;;;;;20.25;15.57;;;26.90;99.90;;;;;;5080156;28;20114;-74
2021/06/18 11:07:42;;;;;;;21.15;17.10;;;27.40;99.90;;;;;;5082553;28;20182;-78
2021/06/18 11:10:28;;;;;;;21.95;17.90;;;27.60;99.90;;;;;;5084543;28;20108;-80
2021/06/18 11:13:07;;;;;;;21.73;17.20;;;27.60;99.90;;;;;;5080216;28;20360;-79
2021/06/18 11:15:33;;;;;;;23.45;19.27;;;27.80;99.90;;;;;;5061017;28;20123;-77
2021/06/18 11:18:16;;;;;;;23.60;18.08;;;27.60;99.90;;;;;;5071525;28;20028;-78
2021/06/18 11:20:42;;;;;;;21.08;17.38;;;27.40;99.90;;;;;;5064038;28;20028;-78
2021/06/18 11:23:10;;;;;;;18.80;15.23;;;27.50;99.90;;;;;;5073448;28;20190;-77
2021/06/18 11:25:36;;;;;;;21.75;15.35;;;27.80;99.90;;;;;;5056715;28;20044;-77
2021/06/18 11:28:20;;;;;;;27.10;16.40;;;28.10;99.90;;;;;;5057681;28;20383;-78
2021/06/18 11:30:59;;;;;;;18.98;15.68;;;28.30;99.90;;;;;;5072973;28;20021;-75
2021/06/18 11:33:40;;;;;;;19.15;14.50;;;28.30;99.90;;;;;;5073991;28;20100;-75
2021/06/18 11:36:07;;;;;;;22.17;15.47;;;28.40;99.90;;;;;;5084123;28;20019;-77
2021/06/18 11:38:35;;;;;;;18.15;13.70;;;28.30;99.90;;;;;;5090361;28;20012;-76
2021/06/18 11:41:05;;;;;;;20.70;12.85;;;28.40;99.90;;;;;;5069149;28;20012;-76
2021/06/18 11:43:32;;;;;;;13.15;11.30;;;28.40;99.90;;;;;;5071616;28;20047;-77
2021/06/18 11:46:00;;;;;;;13.13;11.63;;;28.60;99.90;;;;;;5076230;28;20084;-75
2021/06/18 11:48:26;;;;;;;18.30;12.80;;;28.70;99.90;;;;;;5078881;28;20025;-76
2021/06/18 11:50:53;;;;;;;21.40;12.23;;;29.00;99.90;;;;;;5079350;28;20009;-77
2021/06/18 11:53:21;;;;;;;21.67;10.55;;;29.20;99.90;;;;;;5073292;28;20025;-76
2021/06/18 11:56:02;;;;;;;15.32;9.18;;;29.50;99.90;;;;;;5072414;28;20016;-76
2021/06/18 11:58:32;;;;;;;16.07;9.50;;;29.70;99.90;;;;;;5066721;28;20121;-76
2021/06/18 12:01:12;;;;;;;13.43;10.18;;;29.70;99.90;;;;;;5068554;28;20160;-78
2021/06/18 12:03:38;;;;;;;16.70;9.27;;;29.60;99.90;;;;;;5072483;28;20211;-77
2021/06/18 12:06:31;;;;;;;18.75;9.82;;;29.50;99.90;;;;;;5060270;28;20032;-77
2021/06/18 12:09:02;;;;;;;13.35;9.95;;;29.40;99.90;;;;;;5063649;28;20039;-74
2021/06/18 12:11:38;;;;;;;14.13;8.43;;;29.50;99.90;;;;;;5062761;28;20376;-77
2021/06/18 12:14:05;;;;;;;12.55;9.48;;;29.60;99.90;;;;;;5066029;28;20041;-76
2021/06/18 12:16:42;;;;;;;15.90;9.27;;;29.70;99.90;;;;;;5069171;28;20413;-77
2021/06/18 12:19:20;;;;;;;15.60;8.15;;;29.80;99.90;;;;;;5080126;28;20087;-76
2021/06/18 12:22:09;;;;;;;12.00;9.45;;;29.80;99.90;;;;;;5066528;28;20065;-74
2021/06/18 12:24:39;;;;;;;15.05;8.70;;;29.90;99.90;;;;;;5059671;28;20090;-76
2021/06/18 12:27:08;;;;;;;15.57;7.78;;;29.90;99.90;;;;;;5073345;28;20009;-76
2021/06/18 12:29:37;;;;;;;14.05;7.75;;;30.00;99.90;;;;;;5072531;28;20032;-76
2021/06/18 12:32:03;;;;;;;13.48;6.32;;;30.10;99.90;;;;;;5070346;28;20017;-76
2021/06/18 12:34:30;;;;;;;15.95;6.20;;;30.20;99.90;;;;;;5069589;28;20036;-75
2021/06/18 12:37:07;;;;;;;13.55;6.75;;;30.30;99.90;;;;;;5072663;28;20013;-77